Terminal Aerodrome Forecast
Issued by NWS

Home | Current Version | Previous Version | Text Only | Print | Product List | Glossary On
Versions: 1 2 3 4 5 6 7 8 9 10 11 12 13 14
562
FTUS41 KLWX 261124
TAFMTN
TAF
KMTN 261124Z 2612/2712 33005KT P6SM OVC010
     FM262000 01004KT P6SM SCT035
     FM270600 00000KT 3SM BR SCT040
     FM270900 VRB03KT 3SM BR BKN040=

USA.gov is the U.S. government's official web portal to all federal, state and local government web resources and services.